sensor_id;sensor_type;location;lat;lon;timestamp;temperature;humidity
45207;DHT22;30950;53.086;21.576;2022-12-13T00:01:46;-0.30;99.90
45207;DHT22;30950;53.086;21.576;2022-12-13T00:04:14;-0.30;99.90
45207;DHT22;30950;53.086;21.576;2022-12-13T00:06:42;-0.30;99.90
45207;DHT22;30950;53.086;21.576;2022-12-13T00:09:12;-0.30;99.90
45207;DHT22;30950;53.086;21.576;2022-12-13T00:11:40;-0.30;99.90
45207;DHT22;30950;53.086;21.576;2022-12-13T00:14:07;-0.40;99.90
45207;DHT22;30950;53.086;21.576;2022-12-13T00:16:34;-0.40;99.90
45207;DHT22;30950;53.086;21.576;2022-12-13T00:19:02;-0.40;99.90
45207;DHT22;30950;53.086;21.576;2022-12-13T00:21:31;-0.50;99.90
45207;DHT22;30950;53.086;21.576;2022-12-13T00:24:00;-0.50;99.90
45207;DHT22;30950;53.086;21.576;2022-12-13T00:26:29;-0.50;99.90
45207;DHT22;30950;53.086;21.576;2022-12-13T00:29:03;-0.60;99.90
45207;DHT22;30950;53.086;21.576;2022-12-13T00:31:30;-0.70;99.90
45207;DHT22;30950;53.086;21.576;2022-12-13T00:34:18;-0.70;99.90
45207;DHT22;30950;53.086;21.576;2022-12-13T00:36:46;-0.80;99.90
45207;DHT22;30950;53.086;21.576;2022-12-13T00:39:15;-0.80;99.90
45207;DHT22;30950;53.086;21.576;2022-12-13T00:41:43;-0.80;99.90
45207;DHT22;30950;53.086;21.576;2022-12-13T00:44:12;-0.80;99.90
45207;DHT22;30950;53.086;21.576;2022-12-13T00:46:40;-0.80;99.90
45207;DHT22;30950;53.086;21.576;2022-12-13T00:49:08;-0.90;99.90
45207;DHT22;30950;53.086;21.576;2022-12-13T00:51:36;-0.90;99.90
45207;DHT22;30950;53.086;21.576;2022-12-13T00:54:05;-0.90;99.90
45207;DHT22;30950;53.086;21.576;2022-12-13T00:56:32;-1.00;99.90
45207;DHT22;30950;53.086;21.576;2022-12-13T00:59:00;-1.00;99.90
45207;DHT22;30950;53.086;21.576;2022-12-13T01:01:32;-1.00;99.90
45207;DHT22;30950;53.086;21.576;2022-12-13T01:04:02;-1.00;99.90
45207;DHT22;30950;53.086;21.576;2022-12-13T01:06:36;-1.00;99.90
45207;DHT22;30950;53.086;21.576;2022-12-13T01:09:09;-1.10;99.90
45207;DHT22;30950;53.086;21.576;2022-12-13T01:11:38;-1.10;99.90
45207;DHT22;30950;53.086;21.576;2022-12-13T01:14:06;-1.10;99.90
45207;DHT22;30950;53.086;21.576;2022-12-13T01:16:33;-1.10;99.90
45207;DHT22;30950;53.086;21.576;2022-12-13T01:19:01;-1.10;99.90
45207;DHT22;30950;53.086;21.576;2022-12-13T01:21:28;-1.10;99.90
45207;DHT22;30950;53.086;21.576;2022-12-13T01:24:02;-1.10;99.90
45207;DHT22;30950;53.086;21.576;2022-12-13T01:26:31;-1.10;99.90
45207;DHT22;30950;53.086;21.576;2022-12-13T01:29:00;-1.10;99.90
45207;DHT22;30950;53.086;21.576;2022-12-13T01:31:28;-1.10;99.90
45207;DHT22;30950;53.086;21.576;2022-12-13T01:33:56;-1.20;99.90
45207;DHT22;30950;53.086;21.576;2022-12-13T01:36:23;-1.20;99.90
45207;DHT22;30950;53.086;21.576;2022-12-13T01:38:57;-1.20;99.90
45207;DHT22;30950;53.086;21.576;2022-12-13T01:41:27;-1.20;99.90
45207;DHT22;30950;53.086;21.576;2022-12-13T01:44:00;-1.20;99.90
45207;DHT22;30950;53.086;21.576;2022-12-13T01:46:34;-1.20;99.90
45207;DHT22;30950;53.086;21.576;2022-12-13T01:49:07;-1.30;99.90
45207;DHT22;30950;53.086;21.576;2022-12-13T01:51:55;-1.30;99.90
45207;DHT22;30950;53.086;21.576;2022-12-13T01:54:33;-1.30;99.90
45207;DHT22;30950;53.086;21.576;2022-12-13T01:57:05;-1.30;99.90
45207;DHT22;30950;53.086;21.576;2022-12-13T01:59:37;-1.30;99.90
45207;DHT22;30950;53.086;21.576;2022-12-13T02:02:06;-1.30;99.90
45207;DHT22;30950;53.086;21.576;2022-12-13T02:07:15;-1.40;99.90
45207;DHT22;30950;53.086;21.576;2022-12-13T02:09:55;-1.40;99.90
45207;DHT22;30950;53.086;21.576;2022-12-13T02:12:26;-1.40;99.90
45207;DHT22;30950;53.086;21.576;2022-12-13T02:14:58;-1.40;99.90
45207;DHT22;30950;53.086;21.576;2022-12-13T02:23:32;-1.50;99.90
45207;DHT22;30950;53.086;21.576;2022-12-13T02:32:29;-1.50;99.90
45207;DHT22;30950;53.086;21.576;2022-12-13T02:35:12;-1.50;99.90
45207;DHT22;30950;53.086;21.576;2022-12-13T02:37:54;-1.60;99.90
45207;DHT22;30950;53.086;21.576;2022-12-13T02:40:33;-1.60;99.90
45207;DHT22;30950;53.086;21.576;2022-12-13T02:43:09;-1.60;99.90
45207;DHT22;30950;53.086;21.576;2022-12-13T02:45:45;-1.60;99.90
45207;DHT22;30950;53.086;21.576;2022-12-13T02:48:15;-1.60;99.90
45207;DHT22;30950;53.086;21.576;2022-12-13T02:50:45;-1.60;99.90
45207;DHT22;30950;53.086;21.576;2022-12-13T02:53:14;-1.60;99.90
45207;DHT22;30950;53.086;21.576;2022-12-13T02:55:43;-1.70;99.90
45207;DHT22;30950;53.086;21.576;2022-12-13T02:58:16;-1.70;99.90
45207;DHT22;30950;53.086;21.576;2022-12-13T03:17:36;-1.80;99.90
45207;DHT22;30950;53.086;21.576;2022-12-13T03:20:06;-1.80;99.90
45207;DHT22;30950;53.086;21.576;2022-12-13T03:22:50;-1.70;99.90
45207;DHT22;30950;53.086;21.576;2022-12-13T03:25:19;-1.80;99.90
45207;DHT22;30950;53.086;21.576;2022-12-13T03:27:59;-1.80;99.90
45207;DHT22;30950;53.086;21.576;2022-12-13T03:30:30;-1.80;99.90
45207;DHT22;30950;53.086;21.576;2022-12-13T03:32:58;-1.80;99.90
45207;DHT22;30950;53.086;21.576;2022-12-13T03:35:27;-1.80;99.90
45207;DHT22;30950;53.086;21.576;2022-12-13T03:38:14;-1.80;99.90
45207;DHT22;30950;53.086;21.576;2022-12-13T03:41:03;-1.90;99.90
45207;DHT22;30950;53.086;21.576;2022-12-13T03:43:31;-1.90;99.90
45207;DHT22;30950;53.086;21.576;2022-12-13T03:45:59;-1.90;99.90
45207;DHT22;30950;53.086;21.576;2022-12-13T03:48:27;-1.90;99.90
45207;DHT22;30950;53.086;21.576;2022-12-13T03:50:55;-2.00;99.90
45207;DHT22;30950;53.086;21.576;2022-12-13T03:53:24;-2.00;99.90
45207;DHT22;30950;53.086;21.576;2022-12-13T03:56:03;-2.00;99.90
45207;DHT22;30950;53.086;21.576;2022-12-13T03:58:32;-2.10;99.90
45207;DHT22;30950;53.086;21.576;2022-12-13T04:01:08;-2.10;99.90
45207;DHT22;30950;53.086;21.576;2022-12-13T04:03:37;-2.10;99.90
45207;DHT22;30950;53.086;21.576;2022-12-13T04:06:06;-2.10;99.90
45207;DHT22;30950;53.086;21.576;2022-12-13T04:08:35;-2.10;99.90
45207;DHT22;30950;53.086;21.576;2022-12-13T04:11:03;-2.20;99.90
45207;DHT22;30950;53.086;21.576;2022-12-13T04:13:54;-2.20;99.90
45207;DHT22;30950;53.086;21.576;2022-12-13T04:16:22;-2.20;99.90
45207;DHT22;30950;53.086;21.576;2022-12-13T04:18:50;-2.20;99.90
45207;DHT22;30950;53.086;21.576;2022-12-13T04:21:17;-2.20;99.90
45207;DHT22;30950;53.086;21.576;2022-12-13T04:23:45;-2.30;99.90
45207;DHT22;30950;53.086;21.576;2022-12-13T04:26:12;-2.30;99.90
45207;DHT22;30950;53.086;21.576;2022-12-13T04:28:40;-2.30;99.90
45207;DHT22;30950;53.086;21.576;2022-12-13T04:31:07;-2.30;99.90
45207;DHT22;30950;53.086;21.576;2022-12-13T04:33:34;-2.30;99.90
45207;DHT22;30950;53.086;21.576;2022-12-13T04:36:03;-2.30;99.90
45207;DHT22;30950;53.086;21.576;2022-12-13T04:38:30;-2.30;99.90
45207;DHT22;30950;53.086;21.576;2022-12-13T04:41:09;-2.30;99.90
45207;DHT22;30950;53.086;21.576;2022-12-13T04:43:38;-2.30;99.90
45207;DHT22;30950;53.086;21.576;2022-12-13T04:46:06;-2.30;99.90
45207;DHT22;30950;53.086;21.576;2022-12-13T04:48:33;-2.30;99.90
45207;DHT22;30950;53.086;21.576;2022-12-13T04:51:01;-2.30;99.90
45207;DHT22;30950;53.086;21.576;2022-12-13T04:53:28;-2.30;99.90
45207;DHT22;30950;53.086;21.576;2022-12-13T04:55:56;-2.30;99.90
45207;DHT22;30950;53.086;21.576;2022-12-13T04:58:23;-2.30;99.90
45207;DHT22;30950;53.086;21.576;2022-12-13T05:00:51;-2.20;99.90
45207;DHT22;30950;53.086;21.576;2022-12-13T05:03:18;-2.30;99.90
45207;DHT22;30950;53.086;21.576;2022-12-13T05:05:46;-2.30;99.90
45207;DHT22;30950;53.086;21.576;2022-12-13T05:08:14;-2.30;99.90
45207;DHT22;30950;53.086;21.576;2022-12-13T05:10:41;-2.40;99.90
45207;DHT22;30950;53.086;21.576;2022-12-13T05:13:09;-2.40;99.90
45207;DHT22;30950;53.086;21.576;2022-12-13T05:15:36;-2.40;99.90
45207;DHT22;30950;53.086;21.576;2022-12-13T05:18:20;-2.50;99.90
45207;DHT22;30950;53.086;21.576;2022-12-13T05:20:48;-2.50;99.90
45207;DHT22;30950;53.086;21.576;2022-12-13T05:23:18;-2.50;99.90
45207;DHT22;30950;53.086;21.576;2022-12-13T05:25:50;-2.50;99.90
45207;DHT22;30950;53.086;21.576;2022-12-13T05:28:18;-2.50;99.90
45207;DHT22;30950;53.086;21.576;2022-12-13T05:30:57;-2.50;99.90
45207;DHT22;30950;53.086;21.576;2022-12-13T05:33:25;-2.50;99.90
45207;DHT22;30950;53.086;21.576;2022-12-13T05:35:53;-2.50;99.90
45207;DHT22;30950;53.086;21.576;2022-12-13T05:38:27;-2.40;99.90
45207;DHT22;30950;53.086;21.576;2022-12-13T05:40:55;-2.40;99.90
45207;DHT22;30950;53.086;21.576;2022-12-13T05:43:22;-2.40;99.90
45207;DHT22;30950;53.086;21.576;2022-12-13T05:46:10;-2.40;99.90
45207;DHT22;30950;53.086;21.576;2022-12-13T05:48:39;-2.40;99.90
45207;DHT22;30950;53.086;21.576;2022-12-13T05:51:08;-2.40;99.90
45207;DHT22;30950;53.086;21.576;2022-12-13T05:53:38;-2.40;99.90
45207;DHT22;30950;53.086;21.576;2022-12-13T05:56:06;-2.40;99.90
45207;DHT22;30950;53.086;21.576;2022-12-13T05:58:35;-2.40;99.90
45207;DHT22;30950;53.086;21.576;2022-12-13T06:01:05;-2.40;99.90
45207;DHT22;30950;53.086;21.576;2022-12-13T06:03:33;-2.30;99.90
45207;DHT22;30950;53.086;21.576;2022-12-13T06:06:03;-2.40;99.90
45207;DHT22;30950;53.086;21.576;2022-12-13T06:08:31;-2.40;99.90
45207;DHT22;30950;53.086;21.576;2022-12-13T06:11:00;-2.40;99.90
45207;DHT22;30950;53.086;21.576;2022-12-13T06:13:41;-2.30;99.90
45207;DHT22;30950;53.086;21.576;2022-12-13T06:16:11;-2.40;99.90
45207;DHT22;30950;53.086;21.576;2022-12-13T06:18:51;-2.40;99.90
45207;DHT22;30950;53.086;21.576;2022-12-13T06:21:27;-2.30;99.90
45207;DHT22;30950;53.086;21.576;2022-12-13T06:24:13;-2.40;99.90
45207;DHT22;30950;53.086;21.576;2022-12-13T06:26:41;-2.40;99.90
45207;DHT22;30950;53.086;21.576;2022-12-13T06:29:13;-2.40;99.90
45207;DHT22;30950;53.086;21.576;2022-12-13T06:31:59;-2.40;99.90
45207;DHT22;30950;53.086;21.576;2022-12-13T06:34:32;-2.40;99.90
45207;DHT22;30950;53.086;21.576;2022-12-13T06:37:03;-2.40;99.90
45207;DHT22;30950;53.086;21.576;2022-12-13T06:39:31;-2.50;99.90
45207;DHT22;30950;53.086;21.576;2022-12-13T06:42:04;-2.50;99.90
45207;DHT22;30950;53.086;21.576;2022-12-13T06:44:33;-2.50;99.90
45207;DHT22;30950;53.086;21.576;2022-12-13T06:47:03;-2.60;99.90
45207;DHT22;30950;53.086;21.576;2022-12-13T06:49:39;-2.60;99.90
45207;DHT22;30950;53.086;21.576;2022-12-13T06:52:11;-2.60;99.90
45207;DHT22;30950;53.086;21.576;2022-12-13T06:54:42;-2.70;99.90
45207;DHT22;30950;53.086;21.576;2022-12-13T06:57:11;-2.80;99.90
45207;DHT22;30950;53.086;21.576;2022-12-13T06:59:38;-2.70;99.90
45207;DHT22;30950;53.086;21.576;2022-12-13T07:02:07;-2.80;99.90
45207;DHT22;30950;53.086;21.576;2022-12-13T07:04:51;-2.80;99.90
45207;DHT22;30950;53.086;21.576;2022-12-13T07:07:19;-2.80;99.90
45207;DHT22;30950;53.086;21.576;2022-12-13T07:09:46;-2.80;99.90
45207;DHT22;30950;53.086;21.576;2022-12-13T07:12:14;-2.80;99.90
45207;DHT22;30950;53.086;21.576;2022-12-13T07:14:41;-2.80;99.90
45207;DHT22;30950;53.086;21.576;2022-12-13T07:17:09;-2.70;99.90
45207;DHT22;30950;53.086;21.576;2022-12-13T07:19:37;-2.70;99.90
45207;DHT22;30950;53.086;21.576;2022-12-13T07:22:05;-2.60;99.90
45207;DHT22;30950;53.086;21.576;2022-12-13T07:24:35;-2.70;99.90
45207;DHT22;30950;53.086;21.576;2022-12-13T07:27:03;-2.60;99.90
45207;DHT22;30950;53.086;21.576;2022-12-13T07:29:31;-2.50;99.90
45207;DHT22;30950;53.086;21.576;2022-12-13T07:31:59;-2.60;99.90
45207;DHT22;30950;53.086;21.576;2022-12-13T07:34:28;-2.60;99.90
45207;DHT22;30950;53.086;21.576;2022-12-13T07:36:56;-2.70;99.90
45207;DHT22;30950;53.086;21.576;2022-12-13T07:39:24;-2.60;99.90
45207;DHT22;30950;53.086;21.576;2022-12-13T07:41:54;-2.60;99.90
45207;DHT22;30950;53.086;21.576;2022-12-13T07:44:22;-2.60;99.90
45207;DHT22;30950;53.086;21.576;2022-12-13T07:46:50;-2.60;99.90
45207;DHT22;30950;53.086;21.576;2022-12-13T07:49:18;-2.60;99.90
45207;DHT22;30950;53.086;21.576;2022-12-13T07:51:46;-2.50;99.90
45207;DHT22;30950;53.086;21.576;2022-12-13T07:54:15;-2.60;99.90
45207;DHT22;30950;53.086;21.576;2022-12-13T07:56:42;-2.50;99.90
45207;DHT22;30950;53.086;21.576;2022-12-13T07:59:11;-2.40;99.90
45207;DHT22;30950;53.086;21.576;2022-12-13T08:01:39;-2.40;99.90
45207;DHT22;30950;53.086;21.576;2022-12-13T08:04:08;-2.40;99.90
45207;DHT22;30950;53.086;21.576;2022-12-13T08:06:36;-2.30;99.90
45207;DHT22;30950;53.086;21.576;2022-12-13T08:09:04;-2.30;99.90
45207;DHT22;30950;53.086;21.576;2022-12-13T08:11:32;-2.10;99.90
45207;DHT22;30950;53.086;21.576;2022-12-13T08:14:00;-2.10;99.90
45207;DHT22;30950;53.086;21.576;2022-12-13T08:16:28;-2.00;99.90
45207;DHT22;30950;53.086;21.576;2022-12-13T08:18:57;-1.90;99.90
45207;DHT22;30950;53.086;21.576;2022-12-13T08:21:38;-1.80;99.90
45207;DHT22;30950;53.086;21.576;2022-12-13T08:24:26;-1.80;99.90
45207;DHT22;30950;53.086;21.576;2022-12-13T08:26:57;-1.80;99.90
45207;DHT22;30950;53.086;21.576;2022-12-13T08:29:29;-1.70;99.90
45207;DHT22;30950;53.086;21.576;2022-12-13T08:32:07;-1.70;99.90
45207;DHT22;30950;53.086;21.576;2022-12-13T08:34:35;-1.60;99.90
45207;DHT22;30950;53.086;21.576;2022-12-13T08:37:04;-1.60;99.90
45207;DHT22;30950;53.086;21.576;2022-12-13T08:39:35;-1.50;99.90
45207;DHT22;30950;53.086;21.576;2022-12-13T08:42:14;-1.50;99.90
45207;DHT22;30950;53.086;21.576;2022-12-13T08:44:47;-1.50;99.90
45207;DHT22;30950;53.086;21.576;2022-12-13T08:47:16;-1.40;99.90
45207;DHT22;30950;53.086;21.576;2022-12-13T08:49:52;-1.40;99.90
45207;DHT22;30950;53.086;21.576;2022-12-13T08:52:21;-1.30;99.90
45207;DHT22;30950;53.086;21.576;2022-12-13T08:54:50;-1.30;99.90
45207;DHT22;30950;53.086;21.576;2022-12-13T08:57:18;-1.30;99.90
45207;DHT22;30950;53.086;21.576;2022-12-13T08:59:45;-1.30;99.90
45207;DHT22;30950;53.086;21.576;2022-12-13T09:02:14;-1.30;99.90
45207;DHT22;30950;53.086;21.576;2022-12-13T09:04:42;-1.30;99.90
45207;DHT22;30950;53.086;21.576;2022-12-13T09:07:09;-1.30;99.90
45207;DHT22;30950;53.086;21.576;2022-12-13T09:09:37;-1.20;99.90
45207;DHT22;30950;53.086;21.576;2022-12-13T09:12:05;-1.20;99.90
45207;DHT22;30950;53.086;21.576;2022-12-13T09:14:53;-1.20;99.90
45207;DHT22;30950;53.086;21.576;2022-12-13T09:17:30;-1.20;99.90
45207;DHT22;30950;53.086;21.576;2022-12-13T09:20:05;-1.20;99.90
45207;DHT22;30950;53.086;21.576;2022-12-13T09:22:53;-1.20;99.90
45207;DHT22;30950;53.086;21.576;2022-12-13T09:25:29;-1.10;99.90
45207;DHT22;30950;53.086;21.576;2022-12-13T09:28:05;-1.20;99.90
45207;DHT22;30950;53.086;21.576;2022-12-13T09:30:36;-1.10;99.90
45207;DHT22;30950;53.086;21.576;2022-12-13T09:33:04;-1.10;99.90
45207;DHT22;30950;53.086;21.576;2022-12-13T09:35:52;-1.10;99.90
45207;DHT22;30950;53.086;21.576;2022-12-13T09:38:20;-1.10;99.90
45207;DHT22;30950;53.086;21.576;2022-12-13T09:40:49;-1.10;99.90
45207;DHT22;30950;53.086;21.576;2022-12-13T09:43:29;-1.10;99.90
45207;DHT22;30950;53.086;21.576;2022-12-13T09:46:17;-1.10;99.90
45207;DHT22;30950;53.086;21.576;2022-12-13T09:48:51;-1.10;99.90
45207;DHT22;30950;53.086;21.576;2022-12-13T09:51:30;-1.10;99.90
45207;DHT22;30950;53.086;21.576;2022-12-13T09:54:20;-1.10;99.90
45207;DHT22;30950;53.086;21.576;2022-12-13T09:56:49;-1.10;99.90
45207;DHT22;30950;53.086;21.576;2022-12-13T09:59:23;-1.10;99.90
45207;DHT22;30950;53.086;21.576;2022-12-13T10:01:53;-1.10;99.90
45207;DHT22;30950;53.086;21.576;2022-12-13T10:04:20;-1.10;99.90
45207;DHT22;30950;53.086;21.576;2022-12-13T10:06:55;-1.10;99.90
45207;DHT22;30950;53.086;21.576;2022-12-13T10:09:23;-1.10;99.90
45207;DHT22;30950;53.086;21.576;2022-12-13T10:11:52;-1.10;99.90
45207;DHT22;30950;53.086;21.576;2022-12-13T10:14:34;-1.10;99.90
45207;DHT22;30950;53.086;21.576;2022-12-13T10:17:06;-1.00;99.90
45207;DHT22;30950;53.086;21.576;2022-12-13T10:19:40;-1.00;99.90
45207;DHT22;30950;53.086;21.576;2022-12-13T10:22:12;-1.00;99.90
45207;DHT22;30950;53.086;21.576;2022-12-13T10:24:54;-0.90;99.90
45207;DHT22;30950;53.086;21.576;2022-12-13T10:27:35;-1.00;99.90
45207;DHT22;30950;53.086;21.576;2022-12-13T10:30:10;-0.90;99.90
45207;DHT22;30950;53.086;21.576;2022-12-13T10:32:59;-1.00;99.90
45207;DHT22;30950;53.086;21.576;2022-12-13T10:35:27;-0.90;99.90
45207;DHT22;30950;53.086;21.576;2022-12-13T10:38:00;-1.00;99.90
45207;DHT22;30950;53.086;21.576;2022-12-13T10:40:33;-1.00;99.90
45207;DHT22;30950;53.086;21.576;2022-12-13T10:43:20;-1.00;99.90
45207;DHT22;30950;53.086;21.576;2022-12-13T10:51:20;-1.10;99.90
45207;DHT22;30950;53.086;21.576;2022-12-13T10:56:22;-1.20;99.90
45207;DHT22;30950;53.086;21.576;2022-12-13T10:59:10;-1.10;99.90
45207;DHT22;30950;53.086;21.576;2022-12-13T11:01:43;-1.20;99.90
45207;DHT22;30950;53.086;21.576;2022-12-13T11:06:55;-1.10;99.90
45207;DHT22;30950;53.086;21.576;2022-12-13T11:09:26;-1.10;99.90
45207;DHT22;30950;53.086;21.576;2022-12-13T11:12:02;-1.00;99.90
45207;DHT22;30950;53.086;21.576;2022-12-13T11:14:34;-1.00;99.90
45207;DHT22;30950;53.086;21.576;2022-12-13T11:17:15;-1.00;99.90
45207;DHT22;30950;53.086;21.576;2022-12-13T11:19:49;-1.00;99.90
45207;DHT22;30950;53.086;21.576;2022-12-13T11:22:33;-1.00;99.90
45207;DHT22;30950;53.086;21.576;2022-12-13T11:25:19;-1.00;99.90
45207;DHT22;30950;53.086;21.576;2022-12-13T11:36:49;-1.10;99.90
45207;DHT22;30950;53.086;21.576;2022-12-13T11:39:28;-1.20;99.90
45207;DHT22;30950;53.086;21.576;2022-12-13T11:42:30;-1.10;99.90
45207;DHT22;30950;53.086;21.576;2022-12-13T11:47:47;-1.10;99.90
45207;DHT22;30950;53.086;21.576;2022-12-13T11:50:34;-1.10;99.90
45207;DHT22;30950;53.086;21.576;2022-12-13T12:02:10;-1.20;99.90
45207;DHT22;30950;53.086;21.576;2022-12-13T12:04:52;-1.20;99.90
45207;DHT22;30950;53.086;21.576;2022-12-13T12:07:38;-1.20;99.90
45207;DHT22;30950;53.086;21.576;2022-12-13T12:11:00;-1.10;99.90
45207;DHT22;30950;53.086;21.576;2022-12-13T12:13:36;-1.10;99.90
45207;DHT22;30950;53.086;21.576;2022-12-13T12:16:52;-1.20;99.90
45207;DHT22;30950;53.086;21.576;2022-12-13T12:19:23;-1.10;99.90
45207;DHT22;30950;53.086;21.576;2022-12-13T12:22:28;-1.20;99.90
45207;DHT22;30950;53.086;21.576;2022-12-13T12:25:22;-1.20;99.90
45207;DHT22;30950;53.086;21.576;2022-12-13T12:52:15;-1.10;99.90
45207;DHT22;30950;53.086;21.576;2022-12-13T13:00:56;-1.00;99.90
45207;DHT22;30950;53.086;21.576;2022-12-13T13:03:27;-1.10;99.90
45207;DHT22;30950;53.086;21.576;2022-12-13T13:06:12;-1.10;99.90
45207;DHT22;30950;53.086;21.576;2022-12-13T13:08:58;-1.10;99.90
45207;DHT22;30950;53.086;21.576;2022-12-13T13:11:30;-1.10;99.90
45207;DHT22;30950;53.086;21.576;2022-12-13T13:14:31;-1.20;99.90
45207;DHT22;30950;53.086;21.576;2022-12-13T13:20:27;-1.20;99.90
45207;DHT22;30950;53.086;21.576;2022-12-13T13:22:46;-1.20;99.90
45207;DHT22;30950;53.086;21.576;2022-12-13T13:25:34;-1.20;99.90
45207;DHT22;30950;53.086;21.576;2022-12-13T13:28:21;-1.30;99.90
45207;DHT22;30950;53.086;21.576;2022-12-13T13:31:06;-1.30;99.90
45207;DHT22;30950;53.086;21.576;2022-12-13T13:36:08;-1.50;99.90
45207;DHT22;30950;53.086;21.576;2022-12-13T13:38:50;-1.40;99.90
45207;DHT22;30950;53.086;21.576;2022-12-13T13:41:37;-1.40;99.90
45207;DHT22;30950;53.086;21.576;2022-12-13T14:07:08;-1.40;99.90
45207;DHT22;30950;53.086;21.576;2022-12-13T14:30:03;-1.40;99.90
45207;DHT22;30950;53.086;21.576;2022-12-13T14:32:51;-1.50;99.90
45207;DHT22;30950;53.086;21.576;2022-12-13T14:38:04;-1.50;99.90
45207;DHT22;30950;53.086;21.576;2022-12-13T14:40:37;-1.50;99.90
45207;DHT22;30950;53.086;21.576;2022-12-13T14:43:27;-1.50;99.90
45207;DHT22;30950;53.086;21.576;2022-12-13T14:45:58;-1.50;99.90
45207;DHT22;30950;53.086;21.576;2022-12-13T14:48:26;-1.50;99.90
45207;DHT22;30950;53.086;21.576;2022-12-13T14:50:56;-1.60;99.90
45207;DHT22;30950;53.086;21.576;2022-12-13T14:53:34;-1.60;99.90
45207;DHT22;30950;53.086;21.576;2022-12-13T14:56:07;-1.60;99.90
45207;DHT22;30950;53.086;21.576;2022-12-13T14:58:36;-1.60;99.90
45207;DHT22;30950;53.086;21.576;2022-12-13T15:01:06;-1.60;99.90
45207;DHT22;30950;53.086;21.576;2022-12-13T15:03:33;-1.60;99.90
45207;DHT22;30950;53.086;21.576;2022-12-13T15:06:01;-1.60;99.90
45207;DHT22;30950;53.086;21.576;2022-12-13T15:08:30;-1.50;99.90
45207;DHT22;30950;53.086;21.576;2022-12-13T15:11:03;-1.60;99.90
45207;DHT22;30950;53.086;21.576;2022-12-13T15:13:40;-1.50;99.90
45207;DHT22;30950;53.086;21.576;2022-12-13T15:16:21;-1.60;99.90
45207;DHT22;30950;53.086;21.576;2022-12-13T15:19:25;-1.50;99.90
45207;DHT22;30950;53.086;21.576;2022-12-13T15:22:04;-1.50;99.90
45207;DHT22;30950;53.086;21.576;2022-12-13T15:24:42;-1.50;99.90
45207;DHT22;30950;53.086;21.576;2022-12-13T15:27:27;-1.50;99.90
45207;DHT22;30950;53.086;21.576;2022-12-13T15:29:55;-1.50;99.90
45207;DHT22;30950;53.086;21.576;2022-12-13T15:32:22;-1.50;99.90
45207;DHT22;30950;53.086;21.576;2022-12-13T15:34:50;-1.50;99.90
45207;DHT22;30950;53.086;21.576;2022-12-13T15:37:21;-1.50;99.90
45207;DHT22;30950;53.086;21.576;2022-12-13T15:40:07;-1.50;99.90
45207;DHT22;30950;53.086;21.576;2022-12-13T15:42:37;-1.50;99.90
45207;DHT22;30950;53.086;21.576;2022-12-13T15:45:23;-1.50;99.90
45207;DHT22;30950;53.086;21.576;2022-12-13T15:47:54;-1.50;99.90
45207;DHT22;30950;53.086;21.576;2022-12-13T15:50:47;-1.50;99.90
45207;DHT22;30950;53.086;21.576;2022-12-13T15:53:27;-1.50;99.90
45207;DHT22;30950;53.086;21.576;2022-12-13T15:55:56;-1.50;99.90
45207;DHT22;30950;53.086;21.576;2022-12-13T15:58:27;-1.50;99.90
45207;DHT22;30950;53.086;21.576;2022-12-13T16:00:55;-1.50;99.90
45207;DHT22;30950;53.086;21.576;2022-12-13T16:03:25;-1.50;99.90
45207;DHT22;30950;53.086;21.576;2022-12-13T16:05:54;-1.50;99.90
45207;DHT22;30950;53.086;21.576;2022-12-13T16:08:34;-1.50;99.90
45207;DHT22;30950;53.086;21.576;2022-12-13T16:11:02;-1.60;99.90
45207;DHT22;30950;53.086;21.576;2022-12-13T16:13:35;-1.60;99.90
45207;DHT22;30950;53.086;21.576;2022-12-13T16:16:25;-1.60;99.90
45207;DHT22;30950;53.086;21.576;2022-12-13T16:18:56;-1.60;99.90
45207;DHT22;30950;53.086;21.576;2022-12-13T16:21:25;-1.70;99.90
45207;DHT22;30950;53.086;21.576;2022-12-13T16:23:53;-1.70;99.90
45207;DHT22;30950;53.086;21.576;2022-12-13T16:26:23;-1.70;99.90
45207;DHT22;30950;53.086;21.576;2022-12-13T16:28:54;-1.70;99.90
45207;DHT22;30950;53.086;21.576;2022-12-13T16:31:27;-1.70;99.90
45207;DHT22;30950;53.086;21.576;2022-12-13T16:34:02;-1.70;99.90
45207;DHT22;30950;53.086;21.576;2022-12-13T16:36:30;-1.70;99.90
45207;DHT22;30950;53.086;21.576;2022-12-13T16:39:00;-1.70;99.90
45207;DHT22;30950;53.086;21.576;2022-12-13T16:41:27;-1.80;99.90
45207;DHT22;30950;53.086;21.576;2022-12-13T16:43:56;-1.80;99.90
45207;DHT22;30950;53.086;21.576;2022-12-13T16:46:25;-1.80;99.90
45207;DHT22;30950;53.086;21.576;2022-12-13T16:49:20;-1.80;99.90
45207;DHT22;30950;53.086;21.576;2022-12-13T16:51:48;-1.80;99.90
45207;DHT22;30950;53.086;21.576;2022-12-13T16:54:17;-1.80;99.90
45207;DHT22;30950;53.086;21.576;2022-12-13T16:56:45;-1.80;99.90
45207;DHT22;30950;53.086;21.576;2022-12-13T16:59:15;-1.80;99.90
45207;DHT22;30950;53.086;21.576;2022-12-13T17:01:44;-1.80;99.90
45207;DHT22;30950;53.086;21.576;2022-12-13T17:04:17;-1.80;99.90
45207;DHT22;30950;53.086;21.576;2022-12-13T17:06:51;-1.70;99.90
45207;DHT22;30950;53.086;21.576;2022-12-13T17:09:22;-1.80;99.90
45207;DHT22;30950;53.086;21.576;2022-12-13T17:11:50;-1.80;99.90
45207;DHT22;30950;53.086;21.576;2022-12-13T17:14:18;-1.80;99.90
45207;DHT22;30950;53.086;21.576;2022-12-13T17:16:45;-1.90;99.90
45207;DHT22;30950;53.086;21.576;2022-12-13T17:19:13;-1.90;99.90
45207;DHT22;30950;53.086;21.576;2022-12-13T17:21:42;-1.80;99.90
45207;DHT22;30950;53.086;21.576;2022-12-13T17:24:09;-1.80;99.90
45207;DHT22;30950;53.086;21.576;2022-12-13T17:26:36;-1.90;99.90
45207;DHT22;30950;53.086;21.576;2022-12-13T17:29:04;-1.80;99.90
45207;DHT22;30950;53.086;21.576;2022-12-13T17:31:31;-1.90;99.90
45207;DHT22;30950;53.086;21.576;2022-12-13T17:34:03;-1.90;99.90
45207;DHT22;30950;53.086;21.576;2022-12-13T17:36:31;-1.80;99.90
45207;DHT22;30950;53.086;21.576;2022-12-13T17:38:58;-1.80;99.90
45207;DHT22;30950;53.086;21.576;2022-12-13T17:41:25;-1.80;99.90
45207;DHT22;30950;53.086;21.576;2022-12-13T17:43:57;-1.80;99.90
45207;DHT22;30950;53.086;21.576;2022-12-13T17:46:25;-1.90;99.90
45207;DHT22;30950;53.086;21.576;2022-12-13T17:48:53;-1.90;99.90
45207;DHT22;30950;53.086;21.576;2022-12-13T17:51:20;-1.90;99.90
45207;DHT22;30950;53.086;21.576;2022-12-13T17:53:47;-1.90;99.90
45207;DHT22;30950;53.086;21.576;2022-12-13T17:56:16;-1.90;99.90
45207;DHT22;30950;53.086;21.576;2022-12-13T17:58:44;-2.00;99.90
45207;DHT22;30950;53.086;21.576;2022-12-13T18:01:17;-1.90;99.90
45207;DHT22;30950;53.086;21.576;2022-12-13T18:03:46;-2.00;99.90
45207;DHT22;30950;53.086;21.576;2022-12-13T18:06:16;-2.00;99.90
45207;DHT22;30950;53.086;21.576;2022-12-13T18:08:44;-2.00;99.90
45207;DHT22;30950;53.086;21.576;2022-12-13T18:11:14;-2.00;99.90
45207;DHT22;30950;53.086;21.576;2022-12-13T18:14:03;-2.00;99.90
45207;DHT22;30950;53.086;21.576;2022-12-13T18:16:31;-2.00;99.90